Time;durP1;ratioP1;P1;durP2;ratioP2;P2;SDS_P1;SDS_P2;PMS_P1;PMS_P2;Temp;Humidity;BMP_temperature;BMP_pressure;BME280_temperature;BME280_humidity;BME280_pressure;Samples;Min_cycle;Max_cycle;Signal;HPM_P1;HPM_P2
2023/05/09 00:03:47;;;;;;;0.90;0.40;;;;;;;18.15;58.05;96920.69;10414056;28;20033;-30
2023/05/09 00:08:47;;;;;;;0.68;0.40;;;;;;;18.15;58.07;96923.22;10404855;28;20029;-29
2023/05/09 00:13:49;;;;;;;0.40;0.40;;;;;;;18.14;57.92;96924.91;10427492;28;20041;-29
2023/05/09 00:18:49;;;;;;;2.53;0.47;;;;;;;18.17;60.39;96926.63;10396712;28;20113;-29
2023/05/09 00:23:50;;;;;;;0.80;0.40;;;;;;;18.38;61.30;96911.50;10415097;28;20478;-29
2023/05/09 00:28:50;;;;;;;0.87;0.30;;;;;;;18.49;61.73;96907.34;10444616;28;20481;-30
2023/05/09 00:33:52;;;;;;;0.30;0.30;;;;;;;18.37;60.54;96900.53;10424462;28;20302;-30
2023/05/09 00:38:53;;;;;;;0.40;0.40;;;;;;;18.26;58.86;96886.94;10411345;28;20378;-29
2023/05/09 00:43:53;;;;;;;0.30;0.25;;;;;;;18.22;58.43;96876.78;10428217;28;20059;-29
2023/05/09 00:48:54;;;;;;;0.70;0.43;;;;;;;18.19;58.42;96875.09;10432244;28;20024;-29
2023/05/09 00:53:55;;;;;;;0.40;0.30;;;;;;;18.15;57.99;96868.31;10412031;28;20038;-29
2023/05/09 00:58:55;;;;;;;0.40;0.40;;;;;;;18.16;58.19;96864.09;10426793;28;20412;-29
2023/05/09 01:03:56;;;;;;;0.30;0.30;;;;;;;18.15;58.10;96858.19;10400659;28;20036;-30
2023/05/09 01:09:09;;;;;;;1.02;0.50;;;;;;;18.14;58.08;96850.56;10402403;28;20315;-30
2023/05/09 01:14:34;;;;;;;0.38;0.38;;;;;;;18.14;57.63;96850.56;10409353;28;20072;-30
2023/05/09 01:19:57;;;;;;;0.40;0.40;;;;;;;18.13;57.91;96848.88;10416140;28;20064;-30
2023/05/09 01:25:06;;;;;;;0.50;0.50;;;;;;;18.34;61.27;96854.06;10397002;28;20024;-29
2023/05/09 01:30:08;;;;;;;1.17;1.08;;;;;;;18.46;62.49;96839.72;10427279;28;20037;-31
2023/05/09 01:35:13;;;;;;;0.30;0.30;;;;;;;18.44;60.82;96846.47;10431396;28;20034;-29
2023/05/09 01:40:16;;;;;;;0.60;0.40;;;;;;;18.32;60.35;96843.91;10411436;28;20021;-31
2023/05/09 01:45:18;;;;;;;0.80;0.55;;;;;;;18.24;58.96;96845.53;10437605;28;20624;-30
2023/05/09 01:50:21;;;;;;;0.50;0.40;;;;;;;18.20;58.41;96840.47;10416505;28;20033;-29
2023/05/09 01:55:26;;;;;;;2.67;0.50;;;;;;;18.17;58.61;96835.38;10425509;28;20437;-30
2023/05/09 02:00:27;;;;;;;1.30;0.40;;;;;;;18.16;58.28;96831.16;10400593;28;20026;-30
2023/05/09 02:05:29;;;;;;;0.80;0.47;;;;;;;18.15;58.23;96824.41;10408583;28;20033;-30
2023/05/09 02:10:30;;;;;;;0.40;0.35;;;;;;;18.14;57.99;96820.16;10419259;28;20033;-31
2023/05/09 02:15:31;;;;;;;0.60;0.40;;;;;;;18.13;57.96;96808.34;10433600;28;20048;-29
2023/05/09 02:20:34;;;;;;;0.43;0.30;;;;;;;18.13;58.23;96808.34;10426910;28;20504;-30
2023/05/09 02:25:35;;;;;;;0.40;0.40;;;;;;;18.19;62.68;96813.44;10420786;28;20048;-30
2023/05/09 02:30:40;;;;;;;0.30;0.30;;;;;;;18.38;62.17;96793.22;10407113;28;20040;-31
2023/05/09 02:35:44;;;;;;;0.82;0.50;;;;;;;18.48;60.32;96807.59;10439138;28;20037;-30
2023/05/09 02:40:46;;;;;;;0.50;0.40;;;;;;;18.34;60.81;96809.25;10432805;28;20147;-31
2023/05/09 02:45:46;;;;;;;0.50;0.40;;;;;;;18.27;60.34;96804.16;10426918;28;20101;-30
2023/05/09 02:50:47;;;;;;;0.50;0.50;;;;;;;18.23;58.94;96794.84;10429169;28;20040;-29
2023/05/09 02:55:47;;;;;;;0.40;0.30;;;;;;;18.20;58.54;96789.78;10424880;28;20080;-31
2023/05/09 03:00:47;;;;;;;0.43;0.30;;;;;;;18.19;58.16;96791.47;10412180;28;20373;-30
2023/05/09 03:05:48;;;;;;;0.40;0.40;;;;;;;18.15;58.17;96783.88;10379447;28;20030;-30
2023/05/09 03:10:49;;;;;;;0.32;0.30;;;;;;;18.16;57.99;96799.06;10396850;28;20505;-29
2023/05/09 03:15:50;;;;;;;0.68;0.40;;;;;;;18.15;58.06;96796.53;10427628;28;20156;-29
2023/05/09 03:20:51;;;;;;;0.57;0.22;;;;;;;18.14;57.92;96784.69;10393853;28;20087;-31
2023/05/09 03:25:52;;;;;;;0.30;0.30;;;;;;;18.12;57.84;96787.25;10418203;28;20036;-30
2023/05/09 03:30:53;;;;;;;0.40;0.40;;;;;;;18.30;60.99;96782.22;10433213;28;20052;-30
2023/05/09 03:35:57;;;;;;;0.40;0.40;;;;;;;18.46;62.31;96781.41;10416420;28;20152;-30
2023/05/09 03:40:58;;;;;;;1.95;0.40;;;;;;;18.39;60.53;96778.84;10441207;28;20117;-29
2023/05/09 03:45:59;;;;;;;0.73;0.30;;;;;;;18.27;60.54;96782.22;10426580;28;20030;-30
2023/05/09 03:51:01;;;;;;;2.05;0.32;;;;;;;18.24;59.64;96774.56;10395441;28;20029;-29
2023/05/09 03:56:05;;;;;;;0.70;0.52;;;;;;;18.20;58.78;96785.56;10424250;28;20063;-29
2023/05/09 04:01:10;;;;;;;0.93;0.20;;;;;;;18.18;58.33;96779.63;10416347;28;20033;-30
2023/05/09 04:06:11;;;;;;;1.58;0.32;;;;;;;18.16;58.23;96776.25;10424350;28;20443;-30
2023/05/09 04:11:16;;;;;;;0.63;0.50;;;;;;;18.13;58.35;96777.94;10418766;28;20040;-29
2023/05/09 04:16:19;;;;;;;3.90;1.10;;;;;;;18.17;58.62;96780.47;10403986;28;20034;-30
2023/05/09 04:21:19;;;;;;;0.98;0.60;;;;;;;18.15;58.24;96776.28;10392300;28;20017;-30
2023/05/09 04:26:23;;;;;;;21.20;1.27;;;;;;;18.16;58.21;96772.88;10409443;28;20034;-29
2023/05/09 04:31:26;;;;;;;0.50;0.50;;;;;;;18.27;62.51;96776.28;10394249;28;20036;-30
2023/05/09 04:36:27;;;;;;;2.25;0.90;;;;;;;18.42;65.02;96771.28;10383551;28;20036;-29
2023/05/09 04:41:30;;;;;;;1.17;0.60;;;;;;;18.34;63.83;96772.94;10433596;28;20033;-30
2023/05/09 04:46:31;;;;;;;1.42;0.60;;;;;;;18.23;63.07;96769.50;10422271;28;20042;-30
2023/05/09 04:51:32;;;;;;;6.03;1.08;;;;;;;18.20;62.18;96774.56;10417036;28;20029;-30
2023/05/09 04:56:32;;;;;;;6.45;0.95;;;;;;;18.19;60.78;96772.88;10373903;28;20030;-30
2023/05/09 05:01:34;;;;;;;4.82;0.70;;;;;;;18.17;59.72;96759.38;10401133;28;20065;-30
2023/05/09 05:06:35;;;;;;;3.40;0.75;;;;;;;18.14;59.77;96750.06;10421418;28;20042;-29
2023/05/09 05:11:35;;;;;;;0.52;0.30;;;;;;;18.15;58.93;96761.91;10406945;28;20525;-29
2023/05/09 05:16:37;;;;;;;0.60;0.50;;;;;;;18.10;58.30;96758.53;10401961;28;20091;-30
2023/05/09 05:21:38;;;;;;;0.82;0.50;;;;;;;18.08;58.28;96754.28;10408282;28;20087;-30
2023/05/09 05:26:39;;;;;;;0.52;0.50;;;;;;;18.10;57.90;96760.19;10394585;28;20037;-30
2023/05/09 05:31:40;;;;;;;8.52;0.77;;;;;;;17.97;63.02;96761.84;10421377;28;20029;-30
2023/05/09 05:36:41;;;;;;;3.53;0.93;;;;;;;18.21;62.04;96748.38;10403984;28;20038;-29
2023/05/09 05:41:42;;;;;;;2.58;0.80;;;;;;;18.36;65.19;96735.78;10389801;28;20056;-30
2023/05/09 05:46:43;;;;;;;2.63;0.40;;;;;;;18.33;61.02;96738.31;10404707;28;20489;-29
2023/05/09 05:51:44;;;;;;;0.73;0.32;;;;;;;18.23;60.73;96736.56;10412703;28;20049;-30
2023/05/09 05:56:45;;;;;;;0.30;0.30;;;;;;;18.18;59.70;96740.78;10424784;28;20127;-29
2023/05/09 06:01:45;;;;;;;2.28;0.50;;;;;;;18.12;59.00;96731.50;10413270;28;20030;-31
2023/05/09 06:06:47;;;;;;;2.63;0.52;;;;;;;18.13;58.68;96728.13;10398725;28;20041;-30
2023/05/09 06:11:47;;;;;;;0.75;0.30;;;;;;;18.10;58.35;96717.13;10414402;28;20028;-29
2023/05/09 06:16:48;;;;;;;2.00;0.50;;;;;;;18.12;58.12;96716.28;10420189;28;20030;-30
2023/05/09 06:21:48;;;;;;;2.17;0.60;;;;;;;18.09;58.04;96713.75;10420854;28;20283;-29
2023/05/09 06:26:49;;;;;;;2.73;0.60;;;;;;;18.04;57.87;96706.97;10414365;28;20048;-29
2023/05/09 06:31:50;;;;;;;0.75;0.40;;;;;;;18.07;57.72;96697.69;10440693;28;20116;-30
2023/05/09 06:36:50;;;;;;;2.57;0.50;;;;;;;18.15;61.07;96695.19;10397656;28;20032;-30
2023/05/09 06:41:50;;;;;;;4.43;0.70;;;;;;;18.34;61.78;96691.84;10417322;28;20080;-29
2023/05/09 06:46:58;;;;;;;0.40;0.40;;;;;;;18.38;59.44;96681.69;10443701;28;20493;-29
2023/05/09 06:51:58;;;;;;;1.87;0.40;;;;;;;18.27;60.02;96669.84;10406937;28;20045;-29
2023/05/09 06:56:59;;;;;;;0.73;0.50;;;;;;;18.19;59.55;96666.47;10406221;28;20030;-31
2023/05/09 07:01:59;;;;;;;0.38;0.25;;;;;;;18.15;58.84;96659.72;10413238;28;20116;-29
2023/05/09 07:07:02;;;;;;;3.55;0.32;;;;;;;18.13;58.35;96656.31;10406884;28;20413;-29
2023/05/09 07:12:02;;;;;;;1.20;0.30;;;;;;;18.12;57.87;96652.94;10396547;28;20025;-29
2023/05/09 07:17:03;;;;;;;0.32;0.30;;;;;;;18.10;57.96;96648.72;10415640;28;20034;-30
2023/05/09 07:22:03;;;;;;;0.30;0.30;;;;;;;18.09;57.66;96641.97;10407308;28;20437;-29
2023/05/09 07:27:04;;;;;;;1.13;0.32;;;;;;;18.07;57.57;96631.00;10400583;28;20076;-29
2023/05/09 07:32:05;;;;;;;0.98;0.47;;;;;;;18.07;57.45;96625.94;10421016;28;20445;-29
2023/05/09 07:37:05;;;;;;;0.70;0.20;;;;;;;18.06;57.43;96614.94;10390850;28;20041;-30
2023/05/09 07:42:07;;;;;;;1.97;0.33;;;;;;;18.27;59.34;96604.81;10416595;28;20029;-30
2023/05/09 07:47:10;;;;;;;1.38;0.57;;;;;;;18.40;62.78;96605.66;10413873;28;20410;-30
2023/05/09 07:52:10;;;;;;;0.50;0.38;;;;;;;18.36;59.61;96603.97;10408359;28;20125;-30
2023/05/09 07:57:11;;;;;;;0.88;0.25;;;;;;;18.24;59.84;96601.44;10424469;28;20029;-30
2023/05/09 08:02:11;;;;;;;0.47;0.30;;;;;;;18.19;59.05;96582.84;10427761;28;20033;-29
2023/05/09 08:07:11;;;;;;;0.93;0.50;;;;;;;18.14;58.68;96571.84;10430789;28;20030;-31
2023/05/09 08:12:12;;;;;;;0.63;0.30;;;;;;;18.13;58.04;96570.16;10432297;28;20025;-30
2023/05/09 08:17:12;;;;;;;0.27;0.27;;;;;;;18.11;57.80;96559.19;10415004;28;20767;-30
2023/05/09 08:22:17;;;;;;;0.97;0.40;;;;;;;18.11;57.63;96564.28;10415007;28;20029;-31
2023/05/09 08:27:17;;;;;;;4.43;0.52;;;;;;;18.10;57.49;96557.53;10389607;28;20072;-28
2023/05/09 08:32:18;;;;;;;2.53;0.50;;;;;;;18.09;57.53;96553.31;10410439;28;20072;-30
2023/05/09 08:37:19;;;;;;;1.35;0.38;;;;;;;18.09;57.57;96541.47;10422148;28;20033;-30
2023/05/09 08:42:21;;;;;;;0.80;0.33;;;;;;;18.16;61.19;96529.66;10416336;28;20025;-30
2023/05/09 08:47:23;;;;;;;0.40;0.30;;;;;;;18.34;59.21;96527.09;10429713;28;20119;-31
2023/05/09 08:52:24;;;;;;;1.20;0.30;;;;;;;18.41;59.07;96521.19;10427884;28;20546;-29
2023/05/09 08:57:26;;;;;;;0.40;0.30;;;;;;;18.30;59.43;96517.81;10399258;28;20033;-30
2023/05/09 09:02:26;;;;;;;0.80;0.30;;;;;;;18.22;59.41;96514.41;10385814;28;20025;-29
2023/05/09 09:07:29;;;;;;;0.85;0.55;;;;;;;18.18;58.99;96508.50;10426386;28;20402;-30
2023/05/09 09:12:30;;;;;;;0.70;0.40;;;;;;;18.17;58.69;96503.47;10415730;28;20120;-30
2023/05/09 09:17:32;;;;;;;1.25;1.15;;;;;;;18.16;58.24;96504.31;10399997;28;20511;-29
2023/05/09 09:22:33;;;;;;;0.60;0.60;;;;;;;18.13;58.15;96489.97;10438767;28;20060;-30
2023/05/09 09:27:34;;;;;;;0.60;0.50;;;;;;;18.14;57.79;96485.72;10402146;28;20513;-29
2023/05/09 09:32:35;;;;;;;0.45;0.30;;;;;;;18.11;57.57;96468.00;10412454;28;20075;-29
2023/05/09 09:37:38;;;;;;;0.50;0.40;;;;;;;18.10;57.47;96464.63;10423017;28;20485;-29
2023/05/09 09:42:41;;;;;;;0.40;0.35;;;;;;;18.10;57.62;96464.63;10400115;28;20029;-29
2023/05/09 09:47:45;;;;;;;0.40;0.40;;;;;;;18.27;59.49;96464.56;10423277;28;20546;-30
2023/05/09 09:52:50;;;;;;;0.70;0.50;;;;;;;18.40;63.45;96449.34;10423529;28;20033;-32
2023/05/09 09:57:51;;;;;;;0.30;0.30;;;;;;;18.38;59.13;96450.19;10368752;28;20038;-29
2023/05/09 10:02:54;;;;;;;0.38;0.20;;;;;;;18.24;59.64;96440.09;10400493;28;20022;-30
2023/05/09 10:08:01;;;;;;;0.40;0.35;;;;;;;18.20;59.26;96438.44;10430724;28;20422;-30
2023/05/09 10:13:05;;;;;;;0.50;0.50;;;;;;;18.18;58.95;96427.44;10411825;28;20427;-29
2023/05/09 10:18:07;;;;;;;0.40;0.40;;;;;;;18.15;58.41;96421.56;10408641;28;20114;-30
2023/05/09 10:23:10;;;;;;;0.30;0.30;;;;;;;18.14;58.09;96417.31;10397469;28;20413;-29
2023/05/09 10:28:13;;;;;;;0.40;0.35;;;;;;;18.13;57.82;96408.88;10400152;28;20042;-31
2023/05/09 10:33:20;;;;;;;0.68;0.50;;;;;;;18.11;57.74;96394.53;10376483;28;20037;-30
2023/05/09 10:38:21;;;;;;;0.60;0.50;;;;;;;18.10;58.03;96393.72;10414169;28;20033;-30
2023/05/09 10:43:23;;;;;;;0.40;0.40;;;;;;;18.10;57.58;96391.19;10415855;28;20026;-30
2023/05/09 10:48:25;;;;;;;0.80;0.50;;;;;;;18.15;62.11;96381.84;10391451;28;20036;-29
2023/05/09 10:53:39;;;;;;;0.45;0.40;;;;;;;18.34;59.70;96373.34;10387269;28;20124;-29
2023/05/09 10:58:40;;;;;;;0.28;0.28;;;;;;;18.43;58.74;96370.75;10428817;28;20041;-29
2023/05/09 11:03:58;;;;;;;0.30;0.30;;;;;;;18.32;59.57;96356.47;10415912;28;20025;-29
2023/05/09 11:09:31;;;;;;;0.38;0.22;;;;;;;18.25;59.69;96344.66;10386963;28;20411;-30
2023/05/09 11:14:42;;;;;;;0.60;0.38;;;;;;;18.20;59.80;96341.28;10397732;28;20045;-29
2023/05/09 11:19:45;;;;;;;1.13;0.73;;;;;;;18.17;58.88;96328.66;10437054;28;20041;-29
2023/05/09 11:24:47;;;;;;;2.22;1.10;;;;;;;18.16;58.52;96326.97;10403397;28;20120;-30
2023/05/09 11:29:53;;;;;;;0.47;0.43;;;;;;;18.14;58.08;96310.91;10437220;28;20098;-29
2023/05/09 11:35:14;;;;;;;1.55;0.70;;;;;;;18.15;58.51;96302.47;10428569;28;20033;-30
2023/05/09 11:40:17;;;;;;;0.77;0.40;;;;;;;18.10;58.07;96296.59;10405404;28;20037;-29
2023/05/09 11:45:18;;;;;;;1.30;0.90;;;;;;;18.09;58.00;96280.53;10402187;28;20109;-29
2023/05/09 11:50:20;;;;;;;2.25;0.50;;;;;;;18.13;59.15;96276.28;10404612;28;20042;-30
2023/05/09 11:55:21;;;;;;;1.98;0.77;;;;;;;18.33;59.71;96269.47;10420154;28;20075;-30
2023/05/09 12:00:23;;;;;;;1.42;0.40;;;;;;;18.44;59.18;96268.53;10420544;28;20083;-29
2023/05/09 12:05:23;;;;;;;1.35;0.70;;;;;;;18.35;59.59;96257.63;10416332;28;20036;-30
2023/05/09 12:10:24;;;;;;;1.90;1.10;;;;;;;18.26;60.09;96262.72;10416175;28;20033;-30
2023/05/09 12:15:24;;;;;;;5.22;2.60;;;;;;;18.20;59.52;96257.66;10410177;28;20108;-29
2023/05/09 12:20:25;;;;;;;5.73;2.00;;;;;;;18.18;59.22;96241.66;10395850;28;20033;-30
2023/05/09 12:25:25;;;;;;;3.83;1.93;;;;;;;18.16;59.69;96244.19;10410515;28;20285;-30
2023/05/09 12:30:26;;;;;;;3.17;1.73;;;;;;;18.14;59.65;96227.31;10418779;28;20042;-29
2023/05/09 12:35:26;;;;;;;2.60;2.40;;;;;;;18.15;58.87;96219.69;10400932;28;20036;-29
2023/05/09 12:40:27;;;;;;;4.28;3.08;;;;;;;18.16;59.25;96212.97;10440160;28;20493;-29
2023/05/09 12:45:27;;;;;;;7.37;2.40;;;;;;;18.13;58.24;96210.41;10414852;28;20040;-30
2023/05/09 12:50:34;;;;;;;2.63;2.20;;;;;;;18.13;58.23;96200.28;10418411;28;20306;-30
2023/05/09 12:55:38;;;;;;;;;;;;;;;18.30;60.03;96203.56;10402404;28;20033;-29
2023/05/09 13:00:43;;;;;;;1.90;1.30;;;;;;;18.43;60.71;96197.56;10402001;28;20391;-30
2023/05/09 13:05:53;;;;;;;0.80;0.80;;;;;;;18.36;59.79;96188.34;10418209;28;20126;-29
2023/05/09 13:10:54;;;;;;;1.50;0.98;;;;;;;18.27;59.90;96188.38;10418878;28;20028;-30
2023/05/09 13:15:54;;;;;;;5.95;1.73;;;;;;;18.20;59.11;96177.47;10400694;28;20094;-29
2023/05/09 13:20:54;;;;;;;5.07;1.00;;;;;;;18.16;59.21;96167.34;10408987;28;20418;-29
2023/05/09 13:25:55;;;;;;;3.75;1.75;;;;;;;18.15;58.67;96158.09;10430426;28;20044;-29
2023/05/09 13:30:55;;;;;;;1.80;1.63;;;;;;;18.14;58.27;96161.44;10399900;28;20033;-30
2023/05/09 13:35:55;;;;;;;4.97;1.87;;;;;;;18.12;57.83;96143.72;10419589;28;20033;-29
2023/05/09 13:40:56;;;;;;;4.40;1.57;;;;;;;18.12;58.15;96140.34;10413405;28;20029;-30
2023/05/09 13:45:57;;;;;;;4.53;1.85;;;;;;;18.12;57.82;96137.81;10378332;28;20033;-32
2023/05/09 13:50:58;;;;;;;6.13;1.90;;;;;;;18.14;58.49;96131.03;10386643;28;20033;-31
2023/05/09 13:55:59;;;;;;;4.70;1.50;;;;;;;18.23;60.90;96131.81;10394146;28;20047;-29
2023/05/09 14:01:01;;;;;;;3.17;1.23;;;;;;;18.40;60.44;96129.19;10397727;28;20387;-29
2023/05/09 14:06:03;;;;;;;2.40;1.20;;;;;;;18.38;59.90;96124.13;10432904;28;20033;-29
2023/05/09 14:11:03;;;;;;;3.35;1.23;;;;;;;18.29;59.91;96116.59;10409826;28;20037;-29
2023/05/09 14:16:05;;;;;;;5.60;1.30;;;;;;;18.22;59.36;96120.00;10399394;28;20184;-29
2023/05/09 14:21:06;;;;;;;3.35;1.35;;;;;;;18.19;58.77;96114.13;10423660;28;20404;-30
2023/05/09 14:26:07;;;;;;;3.25;1.90;;;;;;;18.16;58.37;96116.69;10423708;28;20040;-30
2023/05/09 14:31:07;;;;;;;2.83;0.73;;;;;;;18.15;58.08;96112.47;10417242;28;20093;-29
2023/05/09 14:36:08;;;;;;;4.70;0.80;;;;;;;18.13;58.25;96101.50;10393157;28;20060;-29
2023/05/09 14:41:08;;;;;;;2.97;1.48;;;;;;;18.10;58.99;96096.47;10408968;28;20470;-29
2023/05/09 14:46:09;;;;;;;6.47;1.92;;;;;;;18.10;58.04;96099.00;10396910;28;20128;-29
2023/05/09 14:51:10;;;;;;;2.73;0.97;;;;;;;18.09;57.76;96113.34;10423583;28;20046;-29
2023/05/09 14:56:13;;;;;;;8.43;1.02;;;;;;;18.13;59.47;96131.88;10418781;28;20062;-31
2023/05/09 15:01:14;;;;;;;3.55;1.02;;;;;;;18.32;59.32;96121.63;10435456;28;20037;-30
2023/05/09 15:06:15;;;;;;;1.25;1.13;;;;;;;18.45;58.63;96117.28;10426647;28;20037;-30
2023/05/09 15:11:15;;;;;;;1.60;0.80;;;;;;;18.35;58.96;96100.50;10418758;28;20038;-30
2023/05/09 15:16:16;;;;;;;6.33;1.50;;;;;;;18.23;59.18;96105.63;10420642;28;20040;-29
2023/05/09 15:21:16;;;;;;;1.60;0.90;;;;;;;18.18;58.99;96108.19;10409262;28;20549;-30
2023/05/09 15:26:17;;;;;;;5.05;1.10;;;;;;;18.14;58.44;96104.03;10395662;28;20386;-29
2023/05/09 15:31:20;;;;;;;2.10;0.82;;;;;;;18.10;57.97;96104.91;10433953;28;20045;-30
2023/05/09 15:36:20;;;;;;;1.15;0.60;;;;;;;18.08;57.77;96110.84;10407899;28;20037;-30
2023/05/09 15:41:21;;;;;;;4.40;0.90;;;;;;;18.07;57.51;96114.22;10404762;28;20116;-30
2023/05/09 15:46:21;;;;;;;1.98;1.38;;;;;;;18.07;57.36;96119.31;10415647;28;20374;-30
2023/05/09 15:51:22;;;;;;;3.60;0.63;;;;;;;18.05;57.44;96126.03;10410080;28;20165;-31
2023/05/09 15:56:22;;;;;;;5.22;0.80;;;;;;;18.07;57.30;96130.25;10397553;28;20039;-30
2023/05/09 16:01:22;;;;;;;4.90;1.50;;;;;;;18.21;60.91;96125.94;10402653;28;20522;-29
2023/05/09 16:06:23;;;;;;;1.90;0.90;;;;;;;18.37;59.98;96131.72;10418452;28;20575;-30
2023/05/09 16:11:23;;;;;;;1.80;0.80;;;;;;;18.38;58.67;96128.34;10422927;28;20078;-29
2023/05/09 16:16:24;;;;;;;3.50;1.00;;;;;;;18.27;59.45;96132.63;10399714;28;20306;-30
2023/05/09 16:21:27;;;;;;;0.90;0.70;;;;;;;18.19;59.08;96126.78;10402076;28;20108;-30
2023/05/09 16:26:28;;;;;;;1.00;0.80;;;;;;;18.13;58.31;96134.44;10420818;28;20035;-29
2023/05/09 16:31:30;;;;;;;2.37;1.10;;;;;;;18.06;60.34;96127.72;10414793;28;20047;-30
2023/05/09 16:36:31;;;;;;;7.40;1.13;;;;;;;18.12;58.97;96125.16;10417174;28;20044;-30
2023/05/09 16:41:32;;;;;;;5.15;1.58;;;;;;;18.14;58.89;96131.03;10430367;28;20110;-29
2023/05/09 16:46:34;;;;;;;12.93;1.70;;;;;;;18.15;58.41;96122.63;10433731;28;20476;-29
2023/05/09 16:51:35;;;;;;;3.17;1.38;;;;;;;18.08;58.41;96119.25;10410529;28;20314;-29
2023/05/09 16:56:36;;;;;;;2.27;0.70;;;;;;;18.10;58.33;96117.59;10388202;28;20037;-30
2023/05/09 17:01:36;;;;;;;2.38;0.47;;;;;;;18.11;57.97;96110.81;10399584;28;20034;-30
2023/05/09 17:06:36;;;;;;;1.83;0.85;;;;;;;18.34;59.52;96111.50;10405910;28;20397;-32
2023/05/09 17:11:37;;;;;;;2.78;0.70;;;;;;;18.47;59.87;96095.28;10371484;28;20046;-30
2023/05/09 17:16:37;;;;;;;3.47;0.80;;;;;;;18.35;58.77;96096.25;10388086;28;20033;-30
2023/05/09 17:21:40;;;;;;;1.70;0.60;;;;;;;18.23;57.57;96096.34;10395972;28;20037;-30
2023/05/09 17:26:40;;;;;;;3.67;0.65;;;;;;;18.20;57.93;96100.59;10395683;28;20038;-30
2023/05/09 17:31:41;;;;;;;0.63;0.43;;;;;;;18.16;57.65;96098.97;10380295;28;20464;-30
2023/05/09 17:36:41;;;;;;;1.13;0.60;;;;;;;18.16;57.43;96097.25;10403765;28;20048;-30
2023/05/09 17:41:43;;;;;;;2.17;0.70;;;;;;;18.13;57.35;96083.75;10397241;28;20325;-30
2023/05/09 17:46:43;;;;;;;0.50;0.43;;;;;;;18.13;57.45;96079.56;10391071;28;20447;-30
2023/05/09 17:51:44;;;;;;;1.45;0.60;;;;;;;18.14;57.58;96081.22;10393771;28;20061;-30
2023/05/09 17:56:45;;;;;;;0.55;0.50;;;;;;;18.16;57.57;96106.56;10412431;28;20102;-30
2023/05/09 18:01:45;;;;;;;3.15;0.52;;;;;;;18.18;57.24;96109.91;10393294;28;20049;-30
2023/05/09 18:06:48;;;;;;;4.40;1.07;;;;;;;18.28;60.37;96102.22;10404602;28;20505;-30
2023/05/09 18:11:48;;;;;;;7.85;1.70;;;;;;;18.44;63.27;96100.41;10411838;28;20292;-30
2023/05/09 18:16:48;;;;;;;3.23;0.87;;;;;;;18.48;60.52;96100.34;10418031;28;20346;-30
2023/05/09 18:21:49;;;;;;;3.47;0.67;;;;;;;18.34;58.08;96101.34;10404454;28;20032;-30
2023/05/09 18:26:49;;;;;;;0.50;0.50;;;;;;;18.28;57.81;96103.91;10400214;28;20037;-30
2023/05/09 18:31:50;;;;;;;1.35;0.60;;;;;;;18.24;57.96;96102.25;10441749;28;20318;-30
2023/05/09 18:36:51;;;;;;;0.93;0.70;;;;;;;18.21;57.79;96107.34;10422437;28;20049;-29
2023/05/09 18:41:51;;;;;;;3.22;0.50;;;;;;;18.16;57.82;96096.41;10407169;28;20457;-31
2023/05/09 18:46:52;;;;;;;0.63;0.40;;;;;;;18.16;57.70;96104.03;10413763;28;20037;-30
2023/05/09 18:51:55;;;;;;;2.97;0.50;;;;;;;18.15;57.73;96099.81;10427170;28;20049;-30
2023/05/09 18:56:55;;;;;;;1.98;0.52;;;;;;;18.16;58.25;96093.88;10420163;28;20044;-31
2023/05/09 19:01:55;;;;;;;0.80;0.60;;;;;;;18.16;58.35;96096.41;10392818;28;20092;-30
2023/05/09 19:06:58;;;;;;;1.43;0.50;;;;;;;18.10;58.42;96087.19;10411619;28;20308;-30
2023/05/09 19:12:01;;;;;;;3.10;0.80;;;;;;;18.34;60.19;96091.22;10388010;28;20334;-29
2023/05/09 19:17:03;;;;;;;1.20;0.60;;;;;;;18.49;59.55;96096.16;10404413;28;20111;-31
2023/05/09 19:22:03;;;;;;;3.13;0.73;;;;;;;18.46;58.94;96104.59;10424623;28;20040;-30
2023/05/09 19:27:05;;;;;;;0.87;0.50;;;;;;;18.33;58.39;96107.28;10414864;28;20059;-31
2023/05/09 19:32:06;;;;;;;2.08;0.65;;;;;;;18.25;57.83;96103.94;10423899;28;20487;-31
2023/05/09 19:37:06;;;;;;;1.63;0.70;;;;;;;18.20;57.96;96095.53;10422201;28;20171;-30
2023/05/09 19:42:07;;;;;;;1.40;0.50;;;;;;;18.19;57.82;96103.97;10404793;28;20131;-31
2023/05/09 19:47:07;;;;;;;2.20;0.70;;;;;;;18.17;57.90;96108.22;10393797;28;20042;-30
2023/05/09 19:52:08;;;;;;;1.67;0.50;;;;;;;18.15;57.96;96112.47;10415194;28;20046;-30
2023/05/09 19:57:09;;;;;;;0.50;0.50;;;;;;;18.15;58.12;96112.47;10367247;28;20092;-30
2023/05/09 20:02:09;;;;;;;1.08;0.47;;;;;;;18.14;57.79;96110.78;10385247;28;20863;-30
2023/05/09 20:07:10;;;;;;;0.93;0.50;;;;;;;18.13;57.84;96107.41;10422275;28;20156;-30
2023/05/09 20:12:11;;;;;;;1.60;0.90;;;;;;;18.21;60.06;96107.34;10387865;28;20034;-30
2023/05/09 20:17:14;;;;;;;1.40;0.70;;;;;;;18.39;60.16;96115.66;10425087;28;20037;-30
2023/05/09 20:22:14;;;;;;;0.82;0.60;;;;;;;18.46;60.04;96108.81;10414507;28;20101;-31
2023/05/09 20:27:15;;;;;;;2.72;0.80;;;;;;;18.35;61.18;96106.38;10385706;28;20034;-30
2023/05/09 20:32:15;;;;;;;3.43;0.70;;;;;;;18.28;59.42;96103.91;10429298;28;20022;-32
2023/05/09 20:37:15;;;;;;;0.83;0.80;;;;;;;18.22;58.44;96114.94;10428107;28;20040;-30
2023/05/09 20:42:16;;;;;;;5.33;0.57;;;;;;;18.19;58.12;96119.19;10384966;28;20113;-31
2023/05/09 20:47:16;;;;;;;2.83;0.70;;;;;;;18.18;58.26;96122.56;10403312;28;20456;-30
2023/05/09 20:52:19;;;;;;;3.03;0.60;;;;;;;18.15;58.18;96113.31;10425356;28;20304;-30
2023/05/09 20:57:20;;;;;;;3.97;0.70;;;;;;;18.15;58.13;96122.63;10433415;28;20048;-31
2023/05/09 21:02:20;;;;;;;0.43;0.33;;;;;;;18.14;57.91;96115.84;10396610;28;20022;-30
2023/05/09 21:07:21;;;;;;;2.70;0.70;;;;;;;18.13;57.80;96114.16;10432486;28;20130;-30
2023/05/09 21:12:24;;;;;;;1.42;0.52;;;;;;;18.14;57.78;96110.78;10401432;28;20029;-29
2023/05/09 21:17:24;;;;;;;2.53;0.73;;;;;;;18.34;60.55;96116.56;10392501;28;20080;-30
2023/05/09 21:22:25;;;;;;;0.70;0.50;;;;;;;18.49;60.39;96118.97;10426277;28;20025;-30
2023/05/09 21:27:25;;;;;;;0.67;0.50;;;;;;;18.43;59.22;96119.81;10419222;28;20029;-30
2023/05/09 21:32:27;;;;;;;0.50;0.45;;;;;;;18.32;59.52;96121.63;10420588;28;20653;-30
2023/05/09 21:37:27;;;;;;;1.25;0.60;;;;;;;18.24;58.88;96113.22;10405262;28;20043;-30
2023/05/09 21:42:28;;;;;;;1.35;0.55;;;;;;;18.21;58.26;96118.31;10403103;28;20026;-30
2023/05/09 21:47:28;;;;;;;0.90;0.50;;;;;;;18.19;58.04;96114.13;10397253;28;20057;-30
2023/05/09 21:52:28;;;;;;;1.97;0.60;;;;;;;18.17;57.96;96114.13;10440534;28;20037;-30
2023/05/09 21:57:29;;;;;;;0.40;0.40;;;;;;;18.15;58.00;96115.00;10402422;28;20033;-31
2023/05/09 22:02:29;;;;;;;1.03;0.50;;;;;;;18.14;57.81;96124.28;10405690;28;20037;-30
2023/05/09 22:07:30;;;;;;;1.92;0.60;;;;;;;18.14;57.84;96128.50;10402237;28;20041;-30
2023/05/09 22:12:30;;;;;;;0.93;0.47;;;;;;;18.15;57.68;96132.75;10416386;28;20072;-30
2023/05/09 22:17:30;;;;;;;1.95;0.93;;;;;;;18.21;62.33;96142.81;10390043;28;20042;-30
2023/05/09 22:22:32;;;;;;;0.70;0.70;;;;;;;18.39;62.61;96137.63;10421533;28;20213;-30
2023/05/09 22:27:32;;;;;;;0.98;0.50;;;;;;;18.49;59.53;96154.44;10432590;28;20075;-30
2023/05/09 22:32:32;;;;;;;0.57;0.40;;;;;;;18.37;59.90;96160.47;10428456;28;20439;-30
2023/05/09 22:37:33;;;;;;;0.57;0.53;;;;;;;18.28;59.58;96164.72;10407341;28;20034;-30
2023/05/09 22:42:33;;;;;;;0.63;0.47;;;;;;;18.24;58.96;96168.13;10383100;28;20448;-30
2023/05/09 22:47:34;;;;;;;1.20;0.70;;;;;;;18.22;58.27;96169.81;10410177;28;20306;-31
2023/05/09 22:52:34;;;;;;;2.73;0.60;;;;;;;18.17;58.14;96166.50;10396123;28;20428;-29
2023/05/09 22:57:34;;;;;;;1.17;0.60;;;;;;;18.17;57.93;96171.56;10409584;28;20432;-30
2023/05/09 23:02:35;;;;;;;1.43;1.07;;;;;;;18.17;57.82;96181.69;10412769;28;20429;-30
2023/05/09 23:07:35;;;;;;;0.40;0.40;;;;;;;18.15;57.75;96175.81;10442275;28;20452;-30
2023/05/09 23:12:36;;;;;;;0.68;0.40;;;;;;;18.14;57.70;96181.69;10421192;28;20119;-30
2023/05/09 23:17:37;;;;;;;0.85;0.32;;;;;;;18.13;57.64;96185.09;10394812;28;20069;-29
2023/05/09 23:22:38;;;;;;;1.50;0.60;;;;;;;18.28;60.87;96187.53;10429637;28;20065;-30